Flight Track Log - Related Links

Times and Time Zones

All times are in EDT time to prevent confusion due to time zone crossing. See the JIA2353 flight status page for this flight to view local times or setup timezone preferences in your user account.

Time Position Orientation Groundspeed Altitude Reporting Facility
EDT Latitude Longitude Course Direction KTS MPH feet Rate Location/Type
Tue 02:12:06 PM 38.8833 -77.0667 237° Southwest 180 207 2,400  Level Potomac TRACON
Tue 02:13:07 PM 38.9333 -77.1167 322° Northwest 244 281 4,900 2,922 Climbing Potomac TRACON
Tue 02:14:00 PM 38.6094 -77.2979 221° Southwest  Level FlightAware Approximate
Tue 02:14:01 PM 38.9833 -77.1833 314° West 254 292 8,000  Level Potomac TRACON
Tue 02:15:00 PM 38.5279 -77.3904 225° Southwest  Level FlightAware Approximate
Tue 02:15:01 PM 38.9500 -77.2667 243° Southwest 282 325 10,800  Level Potomac TRACON
Tue 02:16:00 PM 38.4510 -77.4892 225° Southwest  Level FlightAware Approximate
Tue 02:16:59 PM 38.7817 -77.3572 203° Southwest 349 402 12,800  Level Washington Center
Tue 02:17:00 PM 38.3702 -77.5763 237° Southwest  Level FlightAware Approximate
Tue 02:17:59 PM 38.6786 -77.4106 202° Southwest 382 440 13,800  Level Washington Center
Tue 02:19:00 PM 38.5736 -77.4717 204° Southwest 404 465 14,800 1,091 Climbing Washington Center
Tue 02:20:00 PM 38.4661 -77.5300 203° Southwest 415 478 16,000 1,220 Climbing Washington Center
Tue 02:20:58 PM 38.3692 -77.6069 212° Southwest 420 483 17,200 1,008 Climbing Washington Center
Tue 02:21:59 PM 38.2983 -77.7136 230° Southwest 406 467 18,000 885 Climbing Washington Center
Tue 02:23:00 PM 38.2278 -77.8200 230° Southwest 401 461 19,000 1,008 Climbing Washington Center
Tue 02:23:58 PM 38.1569 -77.9261 230° Southwest 401 461 20,000 1,008 Climbing Washington Center
Tue 02:24:59 PM 38.0839 -78.0319 229° Southwest 401 461 21,000 893 Climbing Washington Center
Tue 02:25:59 PM 38.0300 -78.1144 230° Southwest 401 461 21,800 950 Climbing Washington Center
Tue 02:26:59 PM 37.9544 -78.2281 230° Southwest 395 455 22,900 1,041 Climbing Washington Center
Tue 02:28:00 PM 37.8833 -78.3306 229° Southwest 395 455 23,900 836 Climbing Washington Center
Tue 02:29:01 PM 37.8119 -78.4386 230° Southwest 400 460 24,600 610 Climbing Washington Center
Tue 02:29:58 PM 37.7386 -78.5433 228° Southwest 405 466 25,100 559 Climbing Washington Center
Tue 02:30:59 PM 37.6519 -78.6686 229° Southwest 417 480 25,700 541 Climbing Washington Center
Tue 02:32:00 PM 37.5742 -78.7781 228° Southwest 424 488 26,200 504 Climbing Washington Center
Tue 02:32:58 PM 37.4981 -78.8900 229° Southwest 429 494 26,700 508 Climbing Washington Center
Tue 02:33:58 PM 37.4178 -79.0044 229° Southwest 429 494 27,200 496 Climbing Washington Center
Tue 02:34:59 PM 37.3481 -79.1031 228° Southwest 429 494 27,700 496 Climbing Washington Center
Tue 02:35:59 PM 37.2675 -79.2142 228° Southwest 429 494 28,200 496 Climbing Washington Center
Tue 02:37:00 PM 37.1850 -79.3225 226° Southwest 429 494 28,700 496 Climbing Washington Center
Tue 02:38:00 PM 37.1022 -79.4278 225° Southwest 429 494 29,200 508 Climbing Washington Center
Tue 02:38:58 PM 37.0153 -79.5353 225° Southwest 440 506 29,700 407 Climbing Washington Center
Tue 02:39:58 PM 36.9306 -79.6400 225° Southwest 440 506 30,000 108 Climbing Washington Center
Tue 02:41:44 PM 36.7686 -79.8408 225° Southwest 432 497 30,000  Level Atlanta Center
Tue 02:42:44 PM 36.6825 -79.9464 225° Southwest 432 497 30,000  Level Atlanta Center
Tue 02:43:44 PM 36.5944 -80.0594 226° Southwest 438 504 30,000  Level Atlanta Center
Tue 02:44:44 PM 36.5039 -80.1672 224° Southwest 443 510 30,000  Level Atlanta Center
Tue 02:45:44 PM 36.4217 -80.2692 225° Southwest 454 522 30,000  Level Atlanta Center
Tue 02:46:44 PM 36.3331 -80.3739 224° Southwest 454 522 30,000  Level Atlanta Center
Tue 02:47:44 PM 36.2425 -80.4861 225° Southwest 454 522 30,000  Level Atlanta Center
Tue 02:48:44 PM 36.1478 -80.6033 225° Southwest 447 514 30,000  Level Atlanta Center
Tue 02:49:44 PM 36.0692 -80.7017 225° Southwest 447 514 30,000  Level Atlanta Center
Tue 02:50:44 PM 35.9822 -80.8056 224° Southwest 447 514 30,000  Level Atlanta Center
Tue 02:51:44 PM 35.8933 -80.9142 225° Southwest 452 520 30,000  Level Atlanta Center
Tue 02:52:44 PM 35.8042 -81.0200 224° Southwest 447 514 30,000  Level Atlanta Center
Tue 02:53:44 PM 35.7169 -81.1256 225° Southwest 447 514 30,000  Level Atlanta Center
Tue 02:54:44 PM 35.6194 -81.2286 221° Southwest 453 521 30,000  Level Atlanta Center
Tue 02:55:44 PM 35.5181 -81.3622 227° Southwest 465 535 30,000  Level Atlanta Center
Tue 02:56:44 PM 35.4386 -81.4539 223° Southwest 465 535 30,000  Level Atlanta Center
Tue 02:57:44 PM 35.3489 -81.5611 224° Southwest 458 527 30,000  Level Atlanta Center
Tue 02:58:44 PM 35.2592 -81.6656 224° Southwest 453 521 30,000  Level Atlanta Center
Tue 02:59:44 PM 35.1675 -81.7725 224° Southwest 458 527 30,000  Level Atlanta Center
Tue 03:00:44 PM 35.0775 -81.8814 225° Southwest 458 527 30,000  Level Atlanta Center
Tue 03:01:44 PM 34.9878 -81.9928 226° Southwest 458 527 30,000  Level Atlanta Center
Tue 03:02:44 PM 34.8997 -82.0964 224° Southwest 458 527 30,000  Level Atlanta Center
Tue 03:03:44 PM 34.8094 -82.2022 224° Southwest 447 514 30,000  Level Atlanta Center
Tue 03:04:44 PM 34.7172 -82.3153 225° Southwest 453 521 30,000  Level Atlanta Center
Tue 03:05:44 PM 34.6267 -82.4208 224° Southwest 453 521 30,000  Level Atlanta Center
Tue 03:06:44 PM 34.5342 -82.5308 224° Southwest 453 521 30,000  Level Atlanta Center
Tue 03:07:44 PM 34.4436 -82.6383 224° Southwest 458 527 30,000  Level Atlanta Center
Tue 03:08:44 PM 34.3508 -82.7456 224° Southwest 458 527 30,000  Level Atlanta Center
Tue 03:09:44 PM 34.2561 -82.8650 226° Southwest 453 521 30,000  Level Atlanta Center
Tue 03:10:44 PM 34.1631 -82.9694 223° Southwest 453 521 30,000  Level Atlanta Center
Tue 03:11:44 PM 34.0722 -83.0758 224° Southwest 453 521 30,000  Level Atlanta Center
Tue 03:12:44 PM 33.9811 -83.1819 224° Southwest 453 521 30,000  Level Atlanta Center
Tue 03:13:44 PM 33.8922 -83.2881 225° Southwest 453 521 30,000  Level Atlanta Center
Tue 03:14:44 PM 33.8008 -83.3914 223° Southwest 453 521 30,000  Level Atlanta Center
Tue 03:15:44 PM 33.7075 -83.4994 224° Southwest 453 521 30,000  Level Atlanta Center
Tue 03:16:44 PM 33.6244 -83.5947 224° Southwest 453 521 30,000  Level Atlanta Center
Tue 03:17:44 PM 33.5350 -83.7000 224° Southwest 453 521 30,000  Level Atlanta Center
Tue 03:18:44 PM 33.4433 -83.8047 224° Southwest 453 521 30,000  Level Atlanta Center
Tue 03:19:44 PM 33.3517 -83.9094 224° Southwest 448 516 30,000  Level Atlanta Center
Tue 03:20:44 PM 33.2600 -84.0114 223° Southwest 454 522 30,000  Level Atlanta Center
Tue 03:21:44 PM 33.1597 -84.1256 224° Southwest 454 522 30,000  Level Atlanta Center
Tue 03:22:44 PM 33.0697 -84.2322 225° Southwest 454 522 30,000  Level Atlanta Center
Tue 03:23:44 PM 32.9778 -84.3311 222° Southwest 454 522 30,000  Level Atlanta Center
Tue 03:24:44 PM 32.8856 -84.4372 224° Southwest 448 516 30,000  Level Atlanta Center
Tue 03:25:44 PM 32.7956 -84.5381 223° Southwest 448 516 30,000  Level Atlanta Center
Tue 03:26:44 PM 32.7053 -84.6411 224° Southwest 448 516 30,000  Level Atlanta Center
Tue 03:27:44 PM 32.6128 -84.7442 223° Southwest 448 516 30,000  Level Atlanta Center
Tue 03:28:44 PM 32.5164 -84.8394 220° Southwest 448 516 30,000  Level Atlanta Center
Tue 03:29:44 PM 32.4281 -84.9419 224° Southwest 441 507 30,000  Level Atlanta Center
Tue 03:30:44 PM 32.3417 -85.0444 225° Southwest 456 525 30,000 -400 Level Atlanta Center
Tue 03:31:44 PM 32.2447 -85.1464 222° Southwest 456 525 29,200 -1,213 Descending Atlanta Center
Tue 03:33:52 PM 32.0592 -85.3511 223° Southwest 458 527 26,200 -1,436 Descending Jacksonville Center
Tue 03:34:52 PM 31.9694 -85.4492 223° Southwest 453 521 24,700 -1,100 Descending Jacksonville Center
Tue 03:35:52 PM 31.8800 -85.5422 221° Southwest 448 516 24,000 -350 Descending Jacksonville Center
Tue 03:36:52 PM 31.7944 -85.6375 223° Southwest 437 503 24,000  Level Jacksonville Center
Tue 03:37:52 PM 31.7108 -85.7303 223° Southwest 426 490 24,000 -150 Level Jacksonville Center
Tue 03:38:52 PM 31.6294 -85.8206 223° Southwest 421 484 23,700 -900 Descending Jacksonville Center
Tue 03:39:52 PM 31.5439 -85.9128 223° Southwest 415 478 22,200 -1,500 Descending Jacksonville Center
Tue 03:40:52 PM 31.4544 -85.9856 215° Southwest 410 472 20,700 -1,500 Descending Jacksonville Center
Tue 03:41:52 PM 31.3631 -86.0531 212° Southwest 404 465 19,200 -1,400 Descending Jacksonville Center
Tue 03:42:52 PM 31.2717 -86.1181 211° Southwest 399 459 17,900 -1,400 Descending Jacksonville Center
Tue 03:43:52 PM 31.2272 -86.2258 244° Southwest 367 422 16,400 -1,500 Descending Jacksonville Center
Tue 03:44:52 PM 31.1847 -86.3286 244° Southwest 367 422 14,900 -1,200 Descending Jacksonville Center
Tue 03:45:52 PM 31.1419 -86.4364 245° Southwest 361 415 14,000 -750 Descending Jacksonville Center
Tue 03:46:52 PM 31.0997 -86.5342 243° Southwest 361 415 13,400 -800 Descending Jacksonville Center
Tue 03:47:52 PM 31.0611 -86.6344 246° West 347 399 12,400 -1,121 Descending Jacksonville Center
Tue 03:48:23 PM 31.0364 -86.6942 244° Southwest 325 374 11,700 -900 Descending Jacksonville Center
Tue 03:48:52 PM 31.0250 -86.7275 248° West 336 387 11,500 -472 Descending Jacksonville Center
Tue 03:49:52 PM 30.9847 -86.8206 243° Southwest 336 387 11,000 -850 Descending Jacksonville Center
Tue 03:50:52 PM 30.9483 -86.9133 245° Southwest 330 380 9,800 -1,350 Descending Jacksonville Center
Tue 03:51:52 PM 30.9103 -86.9964 242° Southwest 314 361 8,300 -900 Descending Jacksonville Center
Tue 03:52:52 PM 30.8722 -87.0747 241° Southwest 295 339 8,000 -150 Descending Jacksonville Center
Tue 03:53:52 PM 30.7917 -87.1097 200° South 277 319 8,000 -94 Level Jacksonville Center
Tue 03:54:59 PM 30.6897 -87.1583 202° Southwest 304 350 7,800 -1,150 Descending Jacksonville Center
Tue 03:55:52 PM 30.6369 -87.1825 202° Southwest 301 346 5,700 -2,708 Descending Jacksonville Center
Tue 03:56:52 PM 30.6194 -87.2639 256° West 255 293 2,700 -2,000 Descending Jacksonville Center
Tue 03:57:52 PM 30.5697 -87.2567 173° South 220 253 1,700 -1,000 Descending Jacksonville Center

Login

Don't have an account? Register now (free) for customized features, flight alerts, and more!